Time;durP1;ratioP1;P1;durP2;ratioP2;P2;SDS_P1;SDS_P2;PMS_P1;PMS_P2;Temp;Humidity;BMP_temperature;BMP_pressure;BME280_temperature;BME280_humidity;BME280_pressure;Samples;Min_cycle;Max_cycle;Signal;HPM_P1;HPM_P2
2022/01/06 00:01:11;;;;;;;4.10;3.17;;;;;;;-16.55;72.34;101604.91;4972425;28;20078;-77
2022/01/06 00:03:44;;;;;;;10.05;3.67;;;;;;;-16.41;72.07;101606.47;4973725;28;20058;-78
2022/01/06 00:06:15;;;;;;;4.03;3.22;;;;;;;-16.43;72.05;101575.38;4976690;28;20047;-77
2022/01/06 00:08:47;;;;;;;7.22;3.40;;;;;;;-16.11;71.75;101604.84;4973605;28;20103;-77
2022/01/06 00:11:18;;;;;;;7.43;3.92;;;;;;;-16.00;71.45;101608.53;4971813;28;20151;-77
2022/01/06 00:13:55;;;;;;;9.20;3.70;;;;;;;-15.89;71.26;101609.72;4959162;28;20070;-77
2022/01/06 00:16:35;;;;;;;14.07;7.03;;;;;;;-15.69;71.26;101612.75;4965767;28;20118;-77
2022/01/06 00:24:43;;;;;;;21.67;8.38;;;;;;;-15.27;70.81;101595.56;4976567;28;20058;-78
2022/01/06 00:27:14;;;;;;;18.52;7.82;;;;;;;-15.07;70.46;101601.81;4973717;28;20085;-79
2022/01/06 00:29:45;;;;;;;19.02;7.65;;;;;;;-14.83;70.70;101594.34;4969308;28;20051;-80
2022/01/06 00:32:16;;;;;;;25.20;9.10;;;;;;;-14.61;70.36;101596.63;4975035;28;20078;-79
2022/01/06 00:34:48;;;;;;;26.35;8.98;;;;;;;-14.37;70.17;101589.09;4973399;28;20115;-79
2022/01/06 00:37:19;;;;;;;19.35;7.72;;;;;;;-14.17;70.08;101587.75;4971069;28;20055;-79
2022/01/06 00:39:50;;;;;;;20.05;8.50;;;;;;;-14.01;69.58;101586.06;4975924;28;20063;-78
2022/01/06 00:42:20;;;;;;;20.88;9.00;;;;;;;-13.97;69.30;101573.09;4971394;28;20528;-79
2022/01/06 00:44:51;;;;;;;16.70;7.75;;;;;;;-13.70;69.14;101586.69;4970580;28;20055;-79
2022/01/06 00:47:22;;;;;;;13.77;6.10;;;;;;;-13.50;69.10;101589.56;4971186;28;20110;-78
2022/01/06 00:49:54;;;;;;;10.80;5.95;;;;;;;-13.32;68.58;101579.56;4968381;28;20050;-79
2022/01/06 00:52:25;;;;;;;13.13;7.10;;;;;;;-13.07;68.03;101588.75;4971708;28;20043;-79
2022/01/06 00:54:56;;;;;;;12.43;6.47;;;;;;;-13.10;67.44;101550.72;4975293;28;20061;-79
2022/01/06 00:57:26;;;;;;;17.25;9.85;;;;;;;-12.79;67.29;101591.47;4971431;28;20078;-80
2022/01/06 00:59:57;;;;;;;14.25;6.20;;;;;;;-12.61;66.99;101589.84;4972877;28;20054;-79
2022/01/06 01:02:28;;;;;;;6.88;3.65;;;;;;;-12.48;66.24;101579.31;4970298;28;20102;-80
2022/01/06 01:05:01;;;;;;;3.90;2.88;;;;;;;-12.36;66.01;101577.09;4974616;28;20389;-79
2022/01/06 01:07:32;;;;;;;3.13;2.83;;;;;;;-12.22;65.44;101574.28;4974020;28;20090;-79
2022/01/06 01:10:03;;;;;;;6.25;2.80;;;;;;;-12.31;64.86;101554.13;4972675;28;20090;-79
2022/01/06 01:12:34;;;;;;;5.00;2.83;;;;;;;-12.07;64.66;101572.31;4971292;28;20051;-79
2022/01/06 01:15:06;;;;;;;4.55;3.03;;;;;;;-12.00;64.23;101577.19;4972583;28;20181;-79
2022/01/06 01:17:38;;;;;;;8.70;4.07;;;;;;;-11.98;63.71;101571.56;4971812;28;20062;-79
2022/01/06 01:20:11;;;;;;;6.05;3.50;;;;;;;-11.87;63.57;101565.00;4972383;28;20456;-78
2022/01/06 01:22:42;;;;;;;5.63;3.65;;;;;;;-11.74;63.76;101561.94;4972931;28;20054;-78
2022/01/06 01:25:13;;;;;;;4.15;3.05;;;;;;;-11.59;63.26;101563.38;4973938;28;20053;-78
2022/01/06 01:27:44;;;;;;;2.78;2.47;;;;;;;-11.52;62.75;101562.31;4974426;28;20243;-79
2022/01/06 01:30:16;;;;;;;3.28;2.78;;;;;;;-12.10;62.62;101443.50;4972907;28;20061;-77
2022/01/06 01:32:51;;;;;;;3.38;2.80;;;;;;;-11.41;62.03;101549.03;4964305;28;20329;-77
2022/01/06 01:35:24;;;;;;;7.25;4.32;;;;;;;-11.37;61.75;101548.56;4973330;28;20043;-78
2022/01/06 01:37:54;;;;;;;12.63;6.00;;;;;;;-11.31;61.75;101546.59;4971306;28;20043;-78
2022/01/06 01:40:25;;;;;;;8.48;4.72;;;;;;;-11.38;61.12;101539.25;4972722;28;20062;-78
2022/01/06 01:42:56;;;;;;;6.05;3.67;;;;;;;-11.46;61.27;101535.09;4973992;28;20110;-80
2022/01/06 01:45:30;;;;;;;6.05;4.18;;;;;;;-11.52;62.02;101530.41;4974112;28;20055;-81
2022/01/06 01:48:05;;;;;;;7.50;3.80;;;;;;;-11.70;62.06;101498.47;4974360;28;20066;-80
2022/01/06 01:50:38;;;;;;;4.88;3.38;;;;;;;-11.48;61.62;101531.59;4989247;28;20058;-80
2022/01/06 01:53:08;;;;;;;6.60;3.33;;;;;;;-11.50;61.34;101517.94;4991625;28;20114;-79
2022/01/06 01:55:39;;;;;;;5.22;3.33;;;;;;;-11.44;60.81;101526.06;4990026;28;20046;-79
2022/01/06 01:58:10;;;;;;;2.97;2.65;;;;;;;-11.42;60.79;101527.09;4992370;28;20050;-80
2022/01/06 02:00:41;;;;;;;6.45;2.60;;;;;;;-11.36;60.68;101517.53;4992119;28;20400;-80
2022/01/06 02:03:12;;;;;;;4.93;2.78;;;;;;;-11.36;59.88;101516.66;4993036;28;20065;-80
2022/01/06 02:05:45;;;;;;;4.65;2.63;;;;;;;-11.40;59.89;101510.47;4992183;28;20055;-80
2022/01/06 02:08:15;;;;;;;7.53;3.00;;;;;;;-11.55;59.40;101509.06;4992797;28;20047;-80
2022/01/06 02:10:46;;;;;;;6.63;3.05;;;;;;;-11.54;60.66;101496.56;4984593;28;20055;-80
2022/01/06 02:13:17;;;;;;;6.65;3.47;;;;;;;-11.37;60.46;101495.59;4988980;28;20339;-80
2022/01/06 02:15:48;;;;;;;5.43;3.28;;;;;;;-11.33;60.51;101492.63;4990444;28;20054;-80
2022/01/06 02:18:19;;;;;;;5.45;3.20;;;;;;;-11.48;60.25;101460.97;4992388;28;20121;-80
2022/01/06 02:20:51;;;;;;;8.13;3.95;;;;;;;-11.52;59.40;101485.00;4991546;28;20271;-80
2022/01/06 02:23:22;;;;;;;8.27;3.83;;;;;;;-11.90;59.24;101450.38;4990767;28;20262;-80
2022/01/06 02:25:53;;;;;;;8.85;5.15;;;;;;;-11.91;59.59;101487.31;4991749;28;20234;-79
2022/01/06 02:28:27;;;;;;;10.80;5.10;;;;;;;-11.90;60.35;101484.06;4990626;28;20118;-80
2022/01/06 02:30:58;;;;;;;10.02;4.95;;;;;;;-12.13;59.83;101468.41;4986074;28;20066;-80
2022/01/06 02:33:29;;;;;;;9.80;4.70;;;;;;;-12.17;60.57;101468.13;4982749;28;20064;-77
2022/01/06 02:36:02;;;;;;;10.57;4.65;;;;;;;-11.93;60.41;101478.72;4982852;28;20043;-77
2022/01/06 02:38:34;;;;;;;12.75;4.45;;;;;;;-11.92;60.20;101465.38;4982892;28;20234;-77
2022/01/06 02:41:05;;;;;;;15.05;5.75;;;;;;;-11.87;59.88;101459.13;4982944;28;20050;-77
2022/01/06 02:43:36;;;;;;;17.75;6.75;;;;;;;-11.68;59.32;101461.69;4982343;28;20293;-78
2022/01/06 02:46:07;;;;;;;22.48;7.93;;;;;;;-11.74;58.99;101426.69;4982080;28;20057;-78
2022/01/06 02:48:38;;;;;;;19.88;7.78;;;;;;;-11.54;58.91;101452.81;4982677;28;20046;-77
2022/01/06 02:51:11;;;;;;;20.55;6.53;;;;;;;-11.45;59.09;101451.13;4982811;28;20422;-77
2022/01/06 02:53:42;;;;;;;16.05;5.43;;;;;;;-11.39;58.69;101449.16;4982622;28;20121;-78
2022/01/06 02:56:13;;;;;;;14.18;4.85;;;;;;;-11.36;58.32;101441.84;4982730;28;20050;-77
2022/01/06 02:58:44;;;;;;;9.80;4.60;;;;;;;-11.40;57.90;101449.91;4982532;28;20046;-77
2022/01/06 03:01:15;;;;;;;12.13;4.85;;;;;;;-11.56;57.92;101417.38;4982438;28;20101;-77
2022/01/06 03:03:46;;;;;;;9.25;4.90;;;;;;;-11.39;58.07;101436.53;4982378;28;20074;-78
2022/01/06 03:06:18;;;;;;;13.55;3.95;;;;;;;-11.23;58.24;101433.78;4982560;28;20094;-77
2022/01/06 03:08:49;;;;;;;7.18;4.03;;;;;;;-11.12;58.57;101427.16;4982378;28;20047;-77
2022/01/06 03:11:25;;;;;;;6.18;3.88;;;;;;;-11.03;58.25;101412.81;4982127;28;20438;-78
2022/01/06 03:13:56;;;;;;;6.93;3.53;;;;;;;-10.83;58.18;101416.19;4982272;28;20054;-77
2022/01/06 03:16:28;;;;;;;10.45;3.70;;;;;;;-10.77;58.09;101422.66;4981672;28;20061;-77
2022/01/06 03:18:59;;;;;;;6.10;3.58;;;;;;;-10.69;58.11;101416.63;4981185;28;20090;-77
2022/01/06 03:21:32;;;;;;;6.35;3.75;;;;;;;-10.65;58.16;101413.63;4982095;28;20118;-78
2022/01/06 03:24:03;;;;;;;9.05;3.90;;;;;;;-10.47;57.80;101413.44;4982197;28;20054;-77
2022/01/06 03:26:34;;;;;;;10.98;3.92;;;;;;;-10.52;57.58;101385.25;4982206;28;20050;-77
2022/01/06 03:29:05;;;;;;;6.00;3.78;;;;;;;-10.37;57.01;101405.00;4981924;28;20086;-80
2022/01/06 03:31:35;;;;;;;8.20;3.65;;;;;;;-10.38;56.66;101388.06;4981804;28;20066;-80
2022/01/06 03:34:08;;;;;;;6.80;3.40;;;;;;;-10.30;56.35;101392.16;4982294;28;20055;-80
2022/01/06 03:36:40;;;;;;;16.15;4.03;;;;;;;-10.32;56.13;101381.00;4982114;28;20098;-79
2022/01/06 03:39:11;;;;;;;9.45;3.65;;;;;;;-10.29;55.99;101383.78;4981489;28;20059;-78
2022/01/06 03:41:42;;;;;;;9.95;4.65;;;;;;;-10.29;56.54;101378.75;4981338;28;20111;-79
2022/01/06 03:44:13;;;;;;;10.25;3.35;;;;;;;-10.20;55.38;101384.53;4982122;28;20054;-78
2022/01/06 03:46:44;;;;;;;11.52;3.42;;;;;;;-10.19;55.34;101386.31;4981469;28;20059;-80
2022/01/06 03:49:15;;;;;;;9.48;3.47;;;;;;;-10.10;55.45;101382.03;4981572;28;20099;-78
2022/01/06 03:51:48;;;;;;;5.97;3.35;;;;;;;-10.20;55.75;101349.16;4982134;28;20047;-79
2022/01/06 03:54:19;;;;;;;11.27;3.50;;;;;;;-10.19;55.40;101335.75;4982133;28;20054;-79
2022/01/06 03:56:50;;;;;;;6.72;3.00;;;;;;;-10.23;55.51;101331.22;4982069;28;20093;-80
2022/01/06 03:59:22;;;;;;;9.18;3.10;;;;;;;-9.91;54.70;101368.38;4981849;28;20065;-79
2022/01/06 04:01:53;;;;;;;10.70;3.80;;;;;;;-10.09;54.67;101343.34;4985435;28;20101;-80
2022/01/06 04:04:24;;;;;;;10.23;3.72;;;;;;;-9.92;55.56;101366.63;4985398;28;20101;-80
2022/01/06 04:06:57;;;;;;;16.55;3.65;;;;;;;-9.92;55.42;101376.72;4985395;28;20331;-79
2022/01/06 04:09:28;;;;;;;7.55;4.13;;;;;;;-9.91;56.27;101368.38;4985409;28;20047;-79
2022/01/06 04:11:59;;;;;;;17.83;4.88;;;;;;;-10.12;56.10;101322.88;4985497;28;20046;-79
2022/01/06 04:14:30;;;;;;;11.93;4.38;;;;;;;-9.96;55.80;101352.81;4985806;28;20054;-79
2022/01/06 04:17:01;;;;;;;8.70;3.85;;;;;;;-10.10;55.82;101331.47;4985399;28;20047;-79
2022/01/06 04:19:32;;;;;;;10.65;4.18;;;;;;;-9.99;56.18;101350.94;4985346;28;20147;-79
2022/01/06 04:22:05;;;;;;;15.77;5.00;;;;;;;-10.07;56.26;101331.72;4985090;28;20078;-79
2022/01/06 04:24:36;;;;;;;13.07;4.45;;;;;;;-10.13;56.47;101326.16;4984762;28;20046;-79
2022/01/06 04:27:08;;;;;;;5.10;3.15;;;;;;;-9.96;56.37;101351.94;4985024;28;20058;-78
2022/01/06 04:29:40;;;;;;;12.48;3.90;;;;;;;-10.11;56.40;101328.81;4984936;28;20271;-79
2022/01/06 04:32:11;;;;;;;7.47;3.38;;;;;;;-9.92;56.45;101349.81;4984955;28;20125;-79
2022/01/06 04:34:42;;;;;;;8.05;3.78;;;;;;;-9.94;56.75;101352.97;4985222;28;20118;-79
2022/01/06 04:37:14;;;;;;;7.03;3.60;;;;;;;-10.01;56.85;101347.41;4984918;28;20335;-79
2022/01/06 04:39:46;;;;;;;12.65;3.60;;;;;;;-9.94;57.44;101345.38;4977172;28;20065;-80
2022/01/06 04:42:16;;;;;;;9.73;3.80;;;;;;;-9.88;58.00;101346.78;4984816;28;20109;-80
2022/01/06 04:44:48;;;;;;;8.85;3.22;;;;;;;-9.90;58.01;101347.41;4986381;28;20082;-81
2022/01/06 04:47:19;;;;;;;11.65;4.18;;;;;;;-9.96;58.58;101349.41;4984928;28;20058;-78
2022/01/06 04:49:50;;;;;;;5.32;3.10;;;;;;;-9.99;59.08;101350.94;4978823;28;20055;-78
2022/01/06 04:52:23;;;;;;;8.82;4.00;;;;;;;-9.97;59.19;101351.06;4980041;28;20051;-79
2022/01/06 04:54:53;;;;;;;6.38;3.78;;;;;;;-9.96;59.41;101354.47;4967688;28;20055;-79
2022/01/06 04:57:24;;;;;;;7.22;3.55;;;;;;;-9.99;59.47;101350.94;4984543;28;20058;-79
2022/01/06 04:59:55;;;;;;;8.82;3.40;;;;;;;-9.95;59.74;101356.25;4987025;28;20114;-79
2022/01/06 05:02:29;;;;;;;4.82;3.42;;;;;;;-9.96;60.48;101364.59;4984471;28;20054;-78
2022/01/06 05:05:01;;;;;;;6.43;2.88;;;;;;;-9.98;61.07;101354.38;4984421;28;20246;-78
2022/01/06 05:07:33;;;;;;;9.68;3.25;;;;;;;-10.06;61.75;101340.19;4984188;28;20047;-78
2022/01/06 05:10:05;;;;;;;4.00;2.83;;;;;;;-9.96;63.25;101355.34;4984302;28;20239;-78
2022/01/06 05:12:39;;;;;;;5.70;2.90;;;;;;;-9.92;63.41;101356.50;4979946;28;20046;-78
2022/01/06 05:15:11;;;;;;;5.75;3.42;;;;;;;-9.88;64.04;101363.56;4984224;28;20101;-77
2022/01/06 05:17:43;;;;;;;14.32;5.25;;;;;;;-9.87;64.11;101365.34;4984338;28;20059;-77
2022/01/06 05:20:15;;;;;;;33.10;9.95;;;;;;;-9.87;64.08;101360.28;4984269;28;20114;-78
2022/01/06 05:22:47;;;;;;;34.58;10.10;;;;;;;-9.87;64.22;101355.25;4996756;28;20054;-77
2022/01/06 05:25:21;;;;;;;29.05;8.00;;;;;;;-9.87;64.00;101355.25;5003399;28;20059;-76
2022/01/06 05:27:51;;;;;;;23.30;7.82;;;;;;;-9.90;63.89;101347.41;4984851;28;20055;-77
2022/01/06 05:30:23;;;;;;;39.58;12.77;;;;;;;-10.20;64.19;101303.66;4983341;28;20390;-78
2022/01/06 05:32:54;;;;;;;19.85;8.15;;;;;;;-9.91;64.53;101358.25;4983155;28;20138;-78
2022/01/06 05:35:25;;;;;;;16.55;6.97;;;;;;;-9.95;65.61;101352.09;4983125;28;20093;-76
2022/01/06 05:37:57;;;;;;;12.55;6.25;;;;;;;-9.99;65.70;101350.94;4983583;28;20093;-77
2022/01/06 05:40:28;;;;;;;14.25;5.50;;;;;;;-10.12;66.46;101332.97;4983417;28;20055;-78
2022/01/06 05:42:59;;;;;;;9.02;5.00;;;;;;;-10.09;66.53;101343.34;4982703;28;20090;-78
2022/01/06 05:45:31;;;;;;;13.48;4.80;;;;;;;-10.11;67.26;101343.97;4983336;28;20051;-77
2022/01/06 05:48:02;;;;;;;47.17;15.68;;;;;;;-10.24;67.62;101342.94;4983647;28;20070;-78
2022/01/06 05:50:33;;;;;;;87.65;28.00;;;;;;;-10.19;68.00;101345.88;4985865;28;20088;-78
2022/01/06 05:53:05;;;;;;;96.32;34.15;;;;;;;-10.17;67.88;101349.41;4988628;28;20070;-78
2022/01/06 05:55:36;;;;;;;66.35;23.83;;;;;;;-10.14;67.79;101353.84;4977166;28;20051;-78
2022/01/06 05:58:06;;;;;;;84.35;29.15;;;;;;;-10.14;67.64;101358.88;4983123;28;20047;-78
2022/01/06 06:00:38;;;;;;;66.78;24.73;;;;;;;-10.19;67.56;101355.97;4979568;28;20047;-78
2022/01/06 06:03:09;;;;;;;69.30;25.25;;;;;;;-10.27;67.79;101342.69;4983081;28;20339;-78
2022/01/06 06:05:41;;;;;;;56.50;21.70;;;;;;;-10.29;67.99;101348.41;4983213;28;20054;-78
2022/01/06 06:08:14;;;;;;;89.03;29.52;;;;;;;-10.43;68.08;101338.03;4983259;28;20362;-77
2022/01/06 06:10:45;;;;;;;60.67;23.38;;;;;;;-10.37;68.12;101351.94;4981138;28;20065;-78
2022/01/06 06:13:16;;;;;;;49.17;19.38;;;;;;;-10.45;67.92;101346.25;4987517;28;20050;-82
2022/01/06 06:15:47;;;;;;;24.60;10.88;;;;;;;-10.48;67.83;101346.88;4992031;28;20058;-79
2022/01/06 06:18:18;;;;;;;15.65;8.02;;;;;;;-10.64;68.51;101323.59;4982019;28;20050;-79
2022/01/06 06:20:50;;;;;;;18.00;9.20;;;;;;;-10.66;68.49;101332.66;4982443;28;20058;-79
2022/01/06 06:23:23;;;;;;;13.32;7.55;;;;;;;-10.60;69.06;101345.81;4981327;28;20059;-76
2022/01/06 06:25:54;;;;;;;8.43;5.22;;;;;;;-10.61;69.41;101343.16;4982155;28;20046;-77
2022/01/06 06:28:25;;;;;;;6.95;4.65;;;;;;;-10.72;69.58;101330.50;4982018;28;20073;-78
2022/01/06 06:30:56;;;;;;;7.10;3.55;;;;;;;-10.67;69.72;101335.97;4985973;28;20066;-77
2022/01/06 06:33:27;;;;;;;5.10;3.13;;;;;;;-10.74;70.36;101331.13;4987166;28;20046;-79
2022/01/06 06:35:58;;;;;;;8.68;3.58;;;;;;;-10.74;70.75;101336.19;4988629;28;20082;-78
2022/01/06 06:38:31;;;;;;;6.85;3.88;;;;;;;-11.05;70.77;101303.28;4988443;28;20057;-79
2022/01/06 06:41:02;;;;;;;6.13;3.92;;;;;;;-10.92;71.07;101346.47;4987940;28;20376;-78
2022/01/06 06:43:33;;;;;;;7.13;3.40;;;;;;;-11.02;71.15;101346.44;4987789;28;20073;-79
2022/01/06 06:46:04;;;;;;;8.13;3.30;;;;;;;-11.12;71.32;101356.47;4991449;28;20105;-79
2022/01/06 06:48:40;;;;;;;9.68;4.05;;;;;;;-11.41;71.45;101322.00;4986356;28;20088;-79
2022/01/06 06:51:11;;;;;;;6.68;3.35;;;;;;;-11.30;71.19;101350.72;4989096;28;20105;-78
2022/01/06 06:53:44;;;;;;;6.70;3.60;;;;;;;-11.43;70.81;101357.94;4984256;28;20065;-78
2022/01/06 06:56:15;;;;;;;26.15;10.45;;;;;;;-11.67;70.37;101362.59;4992968;28;20042;-78
2022/01/06 06:58:46;;;;;;;21.40;9.15;;;;;;;-11.93;69.88;101362.78;4988855;28;20647;-78
2022/01/06 07:01:17;;;;;;;30.13;11.13;;;;;;;-11.99;70.53;101352.16;4990382;28;20066;-78
2022/01/06 07:03:48;;;;;;;15.27;8.88;;;;;;;-12.33;69.97;101344.03;4989386;28;20051;-79
2022/01/06 07:06:19;;;;;;;20.13;11.10;;;;;;;-12.58;69.36;101355.09;4987554;28;20080;-78
2022/01/06 07:08:52;;;;;;;8.48;5.35;;;;;;;-12.72;69.79;101359.75;4987293;28;20382;-78
2022/01/06 07:11:24;;;;;;;7.80;4.93;;;;;;;-13.05;69.66;101354.97;4987050;28;20066;-80
2022/01/06 07:13:55;;;;;;;8.70;5.40;;;;;;;-13.19;69.94;101371.25;4986231;28;20050;-79
2022/01/06 07:16:26;;;;;;;5.43;4.30;;;;;;;-13.35;70.42;101368.03;4990898;28;20262;-80
2022/01/06 07:18:57;;;;;;;9.95;6.20;;;;;;;-13.44;71.01;101374.69;4992319;28;20051;-80
2022/01/06 07:21:28;;;;;;;9.18;3.80;;;;;;;-13.55;71.48;101374.56;4984445;28;20046;-80
2022/01/06 07:24:02;;;;;;;4.07;2.97;;;;;;;-13.71;71.43;101371.28;4991272;28;20074;-80
2022/01/06 07:26:33;;;;;;;5.75;3.17;;;;;;;-13.86;71.36;101379.84;4982483;28;20074;-79
2022/01/06 07:29:04;;;;;;;4.07;3.13;;;;;;;-14.06;71.45;101381.25;4992341;28;20050;-79
2022/01/06 07:31:35;;;;;;;8.82;3.80;;;;;;;-14.34;71.73;101373.50;4989641;28;20062;-79
2022/01/06 07:34:05;;;;;;;8.35;4.18;;;;;;;-14.61;71.77;101380.81;4988659;28;20084;-79
2022/01/06 07:36:36;;;;;;;23.70;9.98;;;;;;;-14.84;72.37;101376.84;4987169;28;20242;-78
2022/01/06 07:39:08;;;;;;;38.63;18.17;;;;;;;-14.97;73.18;101383.88;4984998;28;20323;-78
2022/01/06 07:41:39;;;;;;;42.35;17.30;;;;;;;-15.01;73.76;101367.59;4984754;28;20081;-78
2022/01/06 07:44:10;;;;;;;51.08;15.20;;;;;;;-15.00;74.18;101369.41;4984183;28;20073;-80
2022/01/06 07:46:42;;;;;;;49.22;15.02;;;;;;;-14.87;74.26;101386.59;4984592;28;20319;-78
2022/01/06 07:49:13;;;;;;;47.42;13.20;;;;;;;-14.85;73.88;101377.59;4992797;28;20061;-80
2022/01/06 07:51:44;;;;;;;77.22;18.90;;;;;;;-14.94;74.08;101384.19;4999882;28;20331;-77
2022/01/06 07:54:16;;;;;;;62.58;16.58;;;;;;;-14.94;74.33;101379.16;4983713;28;20055;-78
2022/01/06 07:56:47;;;;;;;95.70;24.38;;;;;;;-15.03;74.23;101373.19;4984483;28;20051;-77
2022/01/06 07:59:17;;;;;;;121.65;32.90;;;;;;;-15.05;74.08;101379.66;4983867;28;20043;-77
2022/01/06 08:01:48;;;;;;;152.07;41.05;;;;;;;-15.16;73.97;101380.19;4984671;28;20046;-78
2022/01/06 08:04:19;;;;;;;119.63;33.28;;;;;;;-15.37;74.28;101377.25;4984315;28;20350;-77
2022/01/06 08:06:50;;;;;;;88.18;23.25;;;;;;;-15.44;74.65;101357.28;4984240;28;20053;-78
2022/01/06 08:09:22;;;;;;;73.15;18.90;;;;;;;-15.39;74.60;101381.22;4984115;28;20077;-78
2022/01/06 08:11:53;;;;;;;46.95;15.20;;;;;;;-15.44;74.71;101387.38;4984444;28;20051;-77
2022/01/06 08:14:23;;;;;;;28.65;11.25;;;;;;;-15.43;74.71;101389.13;4984067;28;20065;-78
2022/01/06 08:16:54;;;;;;;17.33;8.40;;;;;;;-15.45;74.77;101383.06;4984608;28;20046;-78
2022/01/06 08:19:25;;;;;;;20.00;8.27;;;;;;;-15.76;74.69;101332.31;4986527;28;20034;-78
2022/01/06 08:21:56;;;;;;;9.93;6.60;;;;;;;-15.50;74.55;101381.69;4989253;28;20060;-78
2022/01/06 08:24:29;;;;;;;13.27;5.63;;;;;;;-15.54;74.48;101379.63;4990760;28;20046;-78
2022/01/06 08:26:59;;;;;;;7.97;4.55;;;;;;;-15.51;74.50;101385.81;4991590;28;20043;-78
2022/01/06 08:29:30;;;;;;;14.25;5.47;;;;;;;-15.51;74.46;101380.81;4989723;28;20110;-78
2022/01/06 08:32:01;;;;;;;11.38;6.70;;;;;;;-15.76;74.30;101357.34;4985865;28;20206;-78
2022/01/06 08:34:32;;;;;;;12.18;5.75;;;;;;;-15.73;74.15;101382.72;4998874;28;20360;-78
2022/01/06 08:37:04;;;;;;;6.28;4.07;;;;;;;-15.75;74.51;101374.16;4992324;28;20053;-78
2022/01/06 08:39:36;;;;;;;6.20;4.00;;;;;;;-15.67;74.50;101388.34;4990905;28;20065;-78
2022/01/06 08:42:08;;;;;;;5.88;4.53;;;;;;;-15.65;74.59;101376.88;4984120;28;20070;-79
2022/01/06 08:44:39;;;;;;;16.30;9.07;;;;;;;-15.63;74.07;101389.56;4989208;28;20558;-79
2022/01/06 08:47:11;;;;;;;26.00;12.68;;;;;;;-15.82;73.51;101391.78;4983637;28;20114;-78
2022/01/06 08:49:42;;;;;;;14.05;7.82;;;;;;;-15.84;73.22;101403.25;4983476;28;20106;-78
2022/01/06 08:52:14;;;;;;;10.18;5.80;;;;;;;-15.91;73.21;101400.81;4983653;28;20499;-78
2022/01/06 08:54:47;;;;;;;8.85;5.95;;;;;;;-15.91;73.42;101403.31;4983907;28;20326;-79
2022/01/06 08:57:18;;;;;;;4.03;3.63;;;;;;;-15.92;73.31;101399.06;4983647;28;20330;-79
2022/01/06 08:59:49;;;;;;;6.45;4.75;;;;;;;-16.11;72.85;101402.09;4978305;28;20110;-81
2022/01/06 09:02:20;;;;;;;6.38;4.63;;;;;;;-16.88;73.03;101292.91;4977637;28;20115;-81
2022/01/06 09:04:52;;;;;;;7.18;4.50;;;;;;;-16.26;72.70;101397.94;4983409;28;20350;-81
2022/01/06 09:07:25;;;;;;;9.90;5.07;;;;;;;-16.57;72.91;101342.09;4977608;28;20047;-82
2022/01/06 09:09:57;;;;;;;7.38;4.70;;;;;;;-16.28;72.59;101391.88;4983285;28;20062;-81
2022/01/06 09:12:28;;;;;;;3.90;2.92;;;;;;;-16.41;72.12;101393.78;4983361;28;20437;-82
2022/01/06 09:14:59;;;;;;;7.82;4.65;;;;;;;-16.92;72.00;101334.91;4987606;28;20078;-80
2022/01/06 09:17:35;;;;;;;9.00;4.57;;;;;;;-16.68;72.37;101377.56;4991561;28;20069;-81
2022/01/06 09:20:07;;;;;;;5.93;4.88;;;;;;;-16.61;72.55;101394.13;4990149;28;20118;-81
2022/01/06 09:22:42;;;;;;;8.52;6.50;;;;;;;-16.66;72.70;101386.13;4992152;28;20169;-79
2022/01/06 09:25:16;;;;;;;12.60;6.68;;;;;;;-16.62;72.86;101393.25;4938767;28;20359;-80
2022/01/06 09:27:49;;;;;;;11.00;5.78;;;;;;;-16.77;72.75;101371.53;4982854;28;20046;-84
2022/01/06 09:30:23;;;;;;;149.93;30.75;;;;;;;-16.79;72.28;101393.06;4982647;28;20064;-82
2022/01/06 09:32:55;;;;;;;176.60;33.83;;;;;;;-16.82;72.41;101382.69;4983153;28;20054;-81
2022/01/06 09:35:26;;;;;;;117.28;27.85;;;;;;;-16.87;72.12;101393.81;4982966;28;20259;-79
2022/01/06 09:37:57;;;;;;;52.63;15.02;;;;;;;-16.88;72.08;101392.03;4982836;28;20334;-80
2022/01/06 09:40:29;;;;;;;17.45;8.63;;;;;;;-17.01;71.98;101375.69;4985425;28;20053;-80
2022/01/06 09:43:00;;;;;;;12.27;6.68;;;;;;;-17.31;71.78;101347.31;4987479;28;20110;-81
2022/01/06 09:45:32;;;;;;;15.52;11.32;;;;;;;-17.37;71.92;101356.63;4990610;28;20228;-79
2022/01/06 09:48:03;;;;;;;17.88;13.70;;;;;;;-17.51;71.71;101358.47;4988261;28;20046;-82
2022/01/06 09:50:33;;;;;;;19.00;13.13;;;;;;;-17.52;72.00;101369.22;4981737;28;20058;-82
2022/01/06 09:53:04;;;;;;;10.80;7.82;;;;;;;-17.58;72.32;101366.00;4984979;28;20113;-80
2022/01/06 09:55:37;;;;;;;9.88;7.82;;;;;;;-17.70;72.72;101372.13;4990392;28;20080;-81
2022/01/06 09:58:08;;;;;;;8.25;4.85;;;;;;;-17.73;73.49;101369.28;4988038;28;20110;-80
2022/01/06 10:00:39;;;;;;;12.77;8.70;;;;;;;-17.75;73.48;101370.72;4985354;28;20350;-80
2022/01/06 10:03:13;;;;;;;9.02;6.47;;;;;;;-17.79;73.71;101361.13;4988184;28;20053;-79
2022/01/06 10:05:45;;;;;;;7.43;4.45;;;;;;;-17.85;73.84;101344.75;4988383;28;20058;-80
2022/01/06 10:08:27;;;;;;;7.57;6.03;;;;;;;-17.71;73.72;101367.84;4988303;28;20070;-80
2022/01/06 10:11:15;;;;;;;7.75;6.05;;;;;;;-17.80;73.87;101366.84;4982745;28;20042;-80
2022/01/06 10:13:47;;;;;;;9.25;7.38;;;;;;;-17.75;74.13;101366.59;4990295;28;20522;-80
2022/01/06 10:16:19;;;;;;;12.55;7.53;;;;;;;-17.92;74.36;101314.84;4987922;28;20043;-80
2022/01/06 10:19:01;;;;;;;4.30;3.90;;;;;;;-18.53;73.93;101175.75;4992669;28;20042;-81
2022/01/06 10:21:38;;;;;;;3.70;3.10;;;;;;;-17.64;73.86;101330.38;4992418;28;20054;-80
2022/01/06 10:24:12;;;;;;;4.60;2.92;;;;;;;-17.51;73.54;101370.97;4988762;28;20048;-81
2022/01/06 10:26:56;;;;;;;3.83;3.40;;;;;;;-17.54;73.30;101340.66;4994748;28;20055;-80
2022/01/06 10:29:29;;;;;;;3.42;3.03;;;;;;;-17.52;72.61;101361.72;4988863;28;20078;-80
2022/01/06 10:32:08;;;;;;;7.53;5.20;;;;;;;-17.66;72.28;101359.28;4988474;28;20055;-80
2022/01/06 10:34:41;;;;;;;7.18;4.80;;;;;;;-17.85;71.88;101354.72;4987322;28;20109;-80
2022/01/06 10:37:22;;;;;;;6.75;4.50;;;;;;;-17.85;71.73;101379.69;4986328;28;20061;-81
2022/01/06 10:39:55;;;;;;;8.75;4.25;;;;;;;-17.87;71.58;101366.16;4988816;28;20039;-81
2022/01/06 10:42:30;;;;;;;6.60;4.68;;;;;;;-17.88;71.54;101371.84;4986348;28;20048;-81
2022/01/06 10:45:09;;;;;;;8.27;5.18;;;;;;;-17.92;71.36;101362.25;4987168;28;20291;-81
2022/01/06 10:47:42;;;;;;;8.95;4.40;;;;;;;-18.71;71.49;101230.28;4986263;28;20057;-81
2022/01/06 10:50:17;;;;;;;5.32;3.97;;;;;;;-18.17;71.29;101322.75;4971198;28;20055;-82
2022/01/06 10:52:50;;;;;;;11.70;3.42;;;;;;;-18.08;71.76;101348.75;4985888;28;20258;-81
2022/01/06 10:55:23;;;;;;;4.70;3.20;;;;;;;-17.97;71.72;101353.34;4987395;28;20078;-81
2022/01/06 10:57:58;;;;;;;5.40;3.70;;;;;;;-18.13;72.14;101320.78;4989362;28;20110;-81
2022/01/06 11:00:30;;;;;;;6.00;3.10;;;;;;;-18.25;71.78;101293.56;4984352;28;20051;-79
2022/01/06 11:03:10;;;;;;;5.05;3.15;;;;;;;-17.89;71.75;101347.63;4981349;28;20050;-80
2022/01/06 11:05:43;;;;;;;29.63;13.55;;;;;;;-18.33;71.90;101261.16;4981405;28;20090;-80
2022/01/06 11:08:17;;;;;;;13.10;6.47;;;;;;;-17.85;71.93;101344.75;4981213;28;20054;-81
2022/01/06 11:10:51;;;;;;;15.27;8.25;;;;;;;-17.77;72.03;101332.19;4981226;28;20082;-80
2022/01/06 11:13:24;;;;;;;8.10;5.43;;;;;;;-17.79;72.03;101333.66;4977911;28;20043;-80
2022/01/06 11:15:55;;;;;;;7.88;3.63;;;;;;;-17.92;71.56;101332.31;4983338;28;20586;-80
2022/01/06 11:18:26;;;;;;;22.40;8.45;;;;;;;-17.95;71.96;101331.94;4983662;28;20059;-80
2022/01/06 11:21:06;;;;;;;19.90;8.82;;;;;;;-17.89;72.57;101322.66;4981407;28;20047;-80
2022/01/06 11:23:36;;;;;;;13.75;6.07;;;;;;;-17.83;72.75;101318.34;4979978;28;20105;-81
2022/01/06 11:26:11;;;;;;;11.73;6.07;;;;;;;-17.75;72.87;101323.28;4979022;28;20055;-81
2022/01/06 11:28:45;;;;;;;9.77;5.70;;;;;;;-17.79;73.31;101291.22;4987427;28;20421;-82
2022/01/06 11:31:18;;;;;;;6.05;3.85;;;;;;;-18.01;72.39;101276.38;4986417;28;20062;-81
2022/01/06 11:33:50;;;;;;;4.82;3.83;;;;;;;-17.79;71.93;101318.69;4988037;28;20054;-81
2022/01/06 11:36:24;;;;;;;3.67;2.90;;;;;;;-17.93;72.01;101295.56;4985551;28;20117;-82
2022/01/06 11:38:55;;;;;;;8.75;3.10;;;;;;;-18.25;71.48;101274.50;4983553;28;20374;-81